Time;durP1;ratioP1;P1;durP2;ratioP2;P2;SDS_P1;SDS_P2;PMS_P1;PMS_P2;Temp;Humidity;BMP_temperature;BMP_pressure;BME280_temperature;BME280_humidity;BME280_pressure;Samples;Min_cycle;Max_cycle;Signal;HPM_P1;HPM_P2
2022/06/22 00:04:51;;;;;;;2.63;1.80;;;21.30;56.90;;;;;;10413097;28;20037;-57
2022/06/22 00:10:08;;;;;;;3.40;1.77;;;21.30;57.60;;;;;;10413670;28;20355;-58
2022/06/22 00:15:37;;;;;;;2.35;1.52;;;21.30;57.00;;;;;;10404973;28;20033;-58
2022/06/22 00:20:38;;;;;;;2.67;1.63;;;21.30;57.00;;;;;;10412986;28;20498;-58
2022/06/22 00:25:39;;;;;;;3.17;1.38;;;21.20;57.00;;;;;;10412270;28;20287;-58
2022/06/22 00:30:46;;;;;;;3.28;1.80;;;21.20;57.10;;;;;;10413445;28;20038;-58
2022/06/22 00:36:01;;;;;;;1.92;1.30;;;21.20;57.10;;;;;;10412176;28;20536;-58
2022/06/22 00:41:20;;;;;;;3.58;2.05;;;21.20;57.20;;;;;;10413047;28;20482;-58
2022/06/22 00:46:23;;;;;;;1.98;1.60;;;21.20;57.20;;;;;;10411734;28;20547;-58
2022/06/22 00:51:34;;;;;;;2.90;1.90;;;21.20;57.20;;;;;;10420003;28;20044;-58
2022/06/22 00:56:53;;;;;;;2.38;1.73;;;21.20;57.30;;;;;;10412980;28;20417;-59
2022/06/22 01:02:38;;;;;;;2.40;1.67;;;21.20;57.30;;;;;;10412801;28;20039;-58
2022/06/22 01:08:03;;;;;;;2.78;2.00;;;21.20;57.30;;;;;;10411279;28;20041;-59
2022/06/22 01:13:24;;;;;;;2.15;1.83;;;21.20;57.30;;;;;;10412645;28;20601;-57
2022/06/22 01:18:40;;;;;;;3.28;1.70;;;21.20;57.40;;;;;;10411437;28;20029;-58
2022/06/22 01:24:16;;;;;;;2.33;1.95;;;21.20;57.40;;;;;;10412283;28;20470;-58
2022/06/22 01:29:20;;;;;;;2.83;1.73;;;21.20;57.30;;;;;;10412119;28;20037;-58
2022/06/22 01:34:24;;;;;;;2.40;1.83;;;21.20;57.40;;;;;;10427167;28;20130;-57
2022/06/22 01:39:25;;;;;;;2.60;1.75;;;21.20;57.40;;;;;;10410766;28;20120;-58
2022/06/22 01:44:56;;;;;;;2.63;1.80;;;21.10;57.40;;;;;;10410643;28;20038;-58
2022/06/22 01:50:39;;;;;;;4.28;2.10;;;21.10;57.40;;;;;;10424974;28;20494;-58
2022/06/22 01:56:01;;;;;;;2.67;1.75;;;21.10;57.40;;;;;;10418247;28;20033;-58
2022/06/22 02:01:33;;;;;;;2.55;1.92;;;21.10;57.50;;;;;;10412697;28;20456;-57
2022/06/22 02:12:20;;;;;;;2.35;2.13;;;21.10;57.60;;;;;;10417958;28;20468;-58
2022/06/22 02:17:26;;;;;;;3.13;2.47;;;21.10;57.60;;;;;;10418347;28;20057;-58
2022/06/22 02:22:27;;;;;;;2.33;1.77;;;21.10;57.60;;;;;;10417207;28;20159;-58
2022/06/22 02:27:29;;;;;;;2.25;2.00;;;21.10;57.50;;;;;;10417822;28;20537;-57
2022/06/22 02:32:38;;;;;;;4.18;2.05;;;21.10;57.70;;;;;;10417475;28;20026;-58
2022/06/22 02:37:55;;;;;;;3.58;2.60;;;21.10;57.60;;;;;;10416160;28;20048;-58
2022/06/22 02:48:46;;;;;;;2.28;1.98;;;21.00;57.60;;;;;;10420545;28;20036;-58
2022/06/22 02:53:48;;;;;;;3.38;2.42;;;21.00;57.60;;;;;;10403174;28;20103;-58
2022/06/22 02:58:49;;;;;;;1.90;1.70;;;21.10;57.60;;;;;;10416305;28;20112;-58
2022/06/22 03:03:57;;;;;;;3.00;2.30;;;21.00;57.60;;;;;;10403330;28;20393;-57
2022/06/22 03:09:04;;;;;;;2.13;1.92;;;21.00;57.60;;;;;;10399424;28;20033;-58
2022/06/22 03:14:29;;;;;;;2.95;2.10;;;21.00;57.60;;;;;;10413678;28;20053;-58
2022/06/22 03:19:56;;;;;;;2.33;2.13;;;21.00;57.60;;;;;;10403068;28;20088;-57
2022/06/22 03:25:28;;;;;;;2.83;1.85;;;21.00;57.60;;;;;;10430619;28;20029;-58
2022/06/22 03:30:50;;;;;;;3.60;2.50;;;21.00;57.60;;;;;;10414123;28;20552;-58
2022/06/22 03:36:07;;;;;;;3.13;2.30;;;21.00;57.60;;;;;;10413653;28;20398;-58
2022/06/22 03:41:22;;;;;;;2.78;2.30;;;21.10;57.70;;;;;;10413885;28;20044;-57
2022/06/22 03:46:33;;;;;;;3.05;2.22;;;21.00;57.60;;;;;;10414813;28;20033;-58
2022/06/22 03:51:53;;;;;;;2.40;1.98;;;21.00;57.60;;;;;;10420995;28;20080;-58
2022/06/22 03:57:03;;;;;;;3.22;2.50;;;21.00;57.60;;;;;;10414500;28;20374;-58
2022/06/22 04:02:04;;;;;;;2.45;2.03;;;21.00;57.60;;;;;;10400997;28;20026;-58
2022/06/22 04:07:06;;;;;;;2.97;2.45;;;21.00;57.60;;;;;;10407214;28;20033;-58
2022/06/22 04:12:17;;;;;;;3.90;2.65;;;21.00;57.60;;;;;;10405143;28;20029;-58
2022/06/22 04:17:44;;;;;;;3.30;2.30;;;21.00;57.60;;;;;;10410420;28;20061;-58
2022/06/22 04:22:53;;;;;;;4.07;2.47;;;21.00;57.60;;;;;;10409729;28;20033;-57
2022/06/22 04:27:58;;;;;;;4.47;2.08;;;21.00;57.60;;;;;;10410873;28;20025;-57
2022/06/22 04:33:28;;;;;;;3.83;2.95;;;21.00;57.60;;;;;;10410924;28;20112;-57
2022/06/22 04:38:39;;;;;;;5.05;2.35;;;21.00;57.60;;;;;;10409609;28;20049;-58
2022/06/22 04:43:40;;;;;;;2.60;2.15;;;20.90;57.50;;;;;;10411594;28;20513;-58
2022/06/22 04:48:48;;;;;;;3.85;2.90;;;20.90;57.60;;;;;;10413018;28;20130;-56
2022/06/22 04:54:22;;;;;;;4.88;2.67;;;20.90;58.20;;;;;;10411662;28;20040;-57
2022/06/22 04:59:25;;;;;;;3.15;2.50;;;20.90;58.50;;;;;;10395813;28;20402;-57
2022/06/22 05:04:43;;;;;;;6.50;2.35;;;21.00;58.60;;;;;;10398545;28;20041;-56
2022/06/22 05:10:04;;;;;;;4.43;2.63;;;21.00;58.70;;;;;;10402841;28;20026;-57
2022/06/22 05:15:06;;;;;;;7.20;2.67;;;21.00;58.90;;;;;;10408707;28;20033;-57
2022/06/22 05:20:21;;;;;;;4.20;3.03;;;21.00;59.20;;;;;;10410607;28;20049;-57
2022/06/22 05:25:22;;;;;;;9.30;3.00;;;21.00;59.50;;;;;;10418497;28;20041;-54
2022/06/22 05:30:23;;;;;;;9.90;3.65;;;21.10;59.80;;;;;;10420061;28;20033;-57
2022/06/22 05:35:33;;;;;;;7.05;3.03;;;21.20;60.30;;;;;;10417933;28;20113;-55
2022/06/22 05:40:37;;;;;;;10.95;3.22;;;21.20;60.30;;;;;;10418316;28;20037;-55
2022/06/22 05:45:47;;;;;;;7.00;3.35;;;21.10;60.50;;;;;;10417169;28;20037;-56
2022/06/22 05:51:01;;;;;;;13.00;3.40;;;21.10;60.70;;;;;;10415559;28;20137;-55
2022/06/22 05:56:43;;;;;;;13.38;4.32;;;21.10;60.80;;;;;;10415666;28;20408;-56
2022/06/22 06:02:21;;;;;;;10.00;4.30;;;21.10;60.70;;;;;;10418058;28;20033;-57
2022/06/22 06:07:48;;;;;;;10.70;4.10;;;21.20;61.00;;;;;;10417420;28;20487;-57
2022/06/22 06:13:25;;;;;;;9.85;3.92;;;21.20;60.90;;;;;;10416950;28;20040;-57
2022/06/22 06:18:35;;;;;;;12.10;4.18;;;21.10;60.90;;;;;;10411318;28;20025;-58
2022/06/22 06:24:00;;;;;;;7.15;3.30;;;21.10;60.80;;;;;;10409727;28;20567;-57
2022/06/22 06:29:13;;;;;;;8.07;3.45;;;21.10;60.80;;;;;;10416606;28;20120;-58
2022/06/22 06:34:21;;;;;;;6.35;3.13;;;21.00;60.80;;;;;;10414565;28;20435;-58
2022/06/22 06:39:25;;;;;;;8.25;4.15;;;21.00;60.60;;;;;;10416294;28;20029;-56
2022/06/22 06:44:26;;;;;;;8.07;4.10;;;21.00;60.70;;;;;;10415472;28;20057;-57
2022/06/22 06:49:38;;;;;;;3.75;3.20;;;21.00;60.40;;;;;;10422175;28;20029;-57
2022/06/22 06:55:08;;;;;;;6.30;4.18;;;21.00;60.20;;;;;;10415744;28;20029;-57
2022/06/22 07:00:12;;;;;;;8.00;4.10;;;21.00;60.00;;;;;;10405639;28;20041;-57
2022/06/22 07:05:18;;;;;;;7.03;3.85;;;21.00;59.90;;;;;;10410005;28;20099;-57
2022/06/22 07:10:41;;;;;;;8.85;3.90;;;21.00;60.20;;;;;;10397004;28;20030;-56
2022/06/22 07:15:49;;;;;;;8.05;4.07;;;21.10;60.10;;;;;;10413147;28;20026;-56
2022/06/22 07:21:02;;;;;;;4.60;3.40;;;21.10;59.90;;;;;;10410883;28;20029;-56
2022/06/22 07:26:19;;;;;;;7.95;3.65;;;21.10;59.70;;;;;;10411158;28;20079;-57
2022/06/22 07:31:56;;;;;;;5.38;3.28;;;21.10;59.50;;;;;;10413779;28;20150;-56
2022/06/22 07:37:08;;;;;;;5.93;3.42;;;21.20;59.40;;;;;;10410164;28;20382;-57
2022/06/22 07:42:13;;;;;;;6.45;3.55;;;21.20;59.50;;;;;;10412218;28;20029;-57
2022/06/22 07:47:41;;;;;;;5.50;3.60;;;21.20;59.30;;;;;;10414385;28;20528;-56
2022/06/22 07:53:03;;;;;;;6.95;2.65;;;21.20;58.40;;;;;;10416730;28;20149;-57
2022/06/22 07:58:22;;;;;;;4.78;2.58;;;21.20;58.20;;;;;;10411412;28;20030;-57
2022/06/22 08:03:39;;;;;;;4.53;3.00;;;21.20;58.30;;;;;;10412081;28;20037;-57
2022/06/22 08:09:11;;;;;;;5.30;2.88;;;21.30;58.30;;;;;;10413408;28;20505;-58
2022/06/22 08:14:30;;;;;;;7.68;2.38;;;21.30;58.40;;;;;;10413371;28;20121;-58
2022/06/22 08:19:31;;;;;;;5.77;2.73;;;21.30;58.40;;;;;;10412644;28;20433;-58
2022/06/22 08:24:40;;;;;;;6.47;2.72;;;21.30;58.40;;;;;;10412387;28;20026;-58
2022/06/22 08:29:41;;;;;;;4.73;2.80;;;21.30;58.50;;;;;;10403528;28;20048;-58
2022/06/22 08:34:50;;;;;;;4.93;2.30;;;21.30;58.50;;;;;;10413163;28;20046;-58
2022/06/22 08:40:07;;;;;;;4.57;2.60;;;21.30;58.60;;;;;;10405377;28;20375;-57
2022/06/22 08:45:38;;;;;;;5.32;2.80;;;21.30;58.50;;;;;;10412490;28;20037;-57
2022/06/22 08:51:11;;;;;;;3.38;2.50;;;21.30;58.50;;;;;;10419417;28;20088;-57
2022/06/22 08:56:28;;;;;;;3.85;2.65;;;21.30;58.50;;;;;;10420368;28;20183;-58
2022/06/22 09:02:21;;;;;;;6.53;2.90;;;21.40;58.60;;;;;;10426494;28;20112;-57
2022/06/22 09:07:37;;;;;;;4.38;2.22;;;21.40;58.50;;;;;;10426166;28;20037;-57
2022/06/22 09:13:33;;;;;;;3.55;2.15;;;21.40;58.60;;;;;;10426139;28;20405;-57
2022/06/22 09:18:48;;;;;;;4.88;2.20;;;21.40;58.70;;;;;;10426079;28;20037;-58
2022/06/22 09:24:14;;;;;;;4.00;2.70;;;21.40;58.80;;;;;;10425792;28;20041;-58
2022/06/22 09:29:45;;;;;;;2.10;1.77;;;21.40;58.60;;;;;;10424430;28;20041;-57
2022/06/22 09:35:33;;;;;;;3.95;2.40;;;21.40;58.50;;;;;;10424391;28;20034;-57
2022/06/22 09:41:10;;;;;;;2.90;2.58;;;21.40;58.70;;;;;;10425660;28;20025;-58
2022/06/22 09:46:48;;;;;;;1.83;1.55;;;21.40;58.70;;;;;;10425479;28;20112;-57
2022/06/22 09:52:21;;;;;;;2.80;2.33;;;21.40;58.40;;;;;;10432655;28;20373;-57
2022/06/22 09:57:57;;;;;;;3.28;2.25;;;21.50;58.60;;;;;;10425376;28;20107;-57
2022/06/22 10:03:35;;;;;;;2.47;2.28;;;21.40;58.30;;;;;;10425050;28;20048;-57
2022/06/22 10:09:09;;;;;;;2.67;2.03;;;21.40;58.10;;;;;;10419106;28;20057;-58
2022/06/22 10:14:39;;;;;;;2.28;1.77;;;21.50;57.90;;;;;;10405213;28;20550;-58
2022/06/22 10:19:50;;;;;;;;;;;21.50;58.00;;;;;;10418047;28;20092;-58
2022/06/22 10:25:20;;;;;;;4.47;1.75;;;21.50;58.10;;;;;;10428396;28;19917;-58
2022/06/22 10:30:57;;;;;;;3.85;2.13;;;21.50;58.20;;;;;;10418228;28;20029;-57
2022/06/22 10:36:59;;;;;;;3.83;2.10;;;21.60;58.10;;;;;;10417057;28;20037;-58
2022/06/22 10:48:33;;;;;;;7.47;1.77;;;21.60;57.20;;;;;;10420436;28;20049;-58
2022/06/22 10:54:26;;;;;;;6.57;2.22;;;21.60;57.10;;;;;;10416564;28;20045;-58
2022/06/22 11:00:04;;;;;;;10.70;1.90;;;21.60;56.40;;;;;;10406833;28;20035;-58
2022/06/22 11:05:45;;;;;;;4.80;1.77;;;21.60;55.90;;;;;;10412209;28;20430;-58
2022/06/22 11:10:58;;;;;;;4.70;1.83;;;21.60;55.30;;;;;;10429986;28;20064;-58
2022/06/22 11:16:06;;;;;;;4.65;2.33;;;21.70;55.10;;;;;;10413922;28;20364;-58
2022/06/22 11:21:20;;;;;;;4.38;1.92;;;21.70;55.00;;;;;;10412025;28;20068;-58
2022/06/22 11:32:43;;;;;;;5.22;1.88;;;21.70;54.40;;;;;;10408468;28;20108;-57
2022/06/22 11:38:11;;;;;;;2.97;1.70;;;21.70;54.10;;;;;;10413573;28;20543;-57
2022/06/22 11:43:33;;;;;;;3.08;1.60;;;21.70;53.40;;;;;;10415238;28;20048;-57
2022/06/22 11:49:18;;;;;;;3.47;2.15;;;21.80;53.50;;;;;;10418482;28;20093;-57
2022/06/22 11:54:48;;;;;;;4.85;1.73;;;21.80;53.90;;;;;;10414363;28;20030;-57
2022/06/22 12:00:10;;;;;;;;;;;21.80;54.10;;;;;;10415024;28;20147;-57
2022/06/22 12:05:47;;;;;;;3.80;1.83;;;21.80;54.30;;;;;;10403365;28;20300;-57
2022/06/22 12:11:05;;;;;;;2.78;1.60;;;21.80;54.60;;;;;;10413170;28;20029;-57
2022/06/22 12:16:26;;;;;;;7.40;1.92;;;21.80;54.70;;;;;;10407704;28;20024;-57
2022/06/22 12:21:50;;;;;;;2.90;1.80;;;21.80;54.90;;;;;;10412766;28;20060;-57
2022/06/22 12:27:15;;;;;;;2.50;1.70;;;21.90;55.10;;;;;;10412410;28;20068;-58
2022/06/22 12:32:40;;;;;;;3.20;2.03;;;21.90;54.50;;;;;;10399737;28;20124;-57
2022/06/22 12:38:08;;;;;;;3.13;1.70;;;21.90;54.40;;;;;;10408358;28;20048;-57
2022/06/22 12:43:37;;;;;;;3.40;1.92;;;21.90;53.90;;;;;;10411240;28;20382;-57
2022/06/22 12:48:56;;;;;;;3.17;1.77;;;21.90;54.00;;;;;;10409629;28;20059;-58
2022/06/22 12:54:32;;;;;;;3.10;2.38;;;21.90;54.00;;;;;;10409486;28;20108;-57
2022/06/22 13:00:06;;;;;;;2.70;2.20;;;21.90;53.80;;;;;;10411410;28;20094;-58
2022/06/22 13:05:20;;;;;;;5.15;2.20;;;21.90;53.80;;;;;;10401960;28;20397;-57
2022/06/22 13:10:26;;;;;;;3.75;1.60;;;22.00;53.70;;;;;;10412529;28;20036;-57
2022/06/22 13:15:41;;;;;;;2.88;2.20;;;22.00;53.90;;;;;;10409748;28;20049;-57
2022/06/22 13:20:55;;;;;;;3.05;1.67;;;22.00;53.70;;;;;;10408289;28;20120;-57
2022/06/22 13:26:39;;;;;;;3.50;1.95;;;22.00;53.70;;;;;;10410953;28;20082;-57
2022/06/22 13:31:44;;;;;;;3.17;2.15;;;22.00;53.40;;;;;;10412272;28;20607;-57
2022/06/22 13:37:06;;;;;;;2.78;1.92;;;22.00;53.70;;;;;;10410855;28;20048;-57
2022/06/22 13:42:42;;;;;;;3.42;2.13;;;22.00;53.70;;;;;;10416210;28;20159;-57
2022/06/22 13:48:05;;;;;;;3.63;2.00;;;22.00;53.60;;;;;;10419632;28;20048;-58
2022/06/22 13:53:27;;;;;;;5.32;1.85;;;22.00;53.70;;;;;;10414662;28;20037;-57
2022/06/22 13:58:41;;;;;;;3.33;1.92;;;22.00;53.80;;;;;;10417859;28;20029;-57
2022/06/22 14:04:22;;;;;;;4.82;2.03;;;22.00;53.80;;;;;;10419455;28;20033;-58
2022/06/22 14:09:40;;;;;;;3.55;1.98;;;22.00;54.00;;;;;;10415991;28;20044;-57
2022/06/22 14:15:33;;;;;;;5.18;1.95;;;22.00;54.00;;;;;;10401954;28;20462;-57
2022/06/22 14:20:43;;;;;;;4.40;2.17;;;22.00;53.60;;;;;;10417344;28;20478;-58
2022/06/22 14:26:20;;;;;;;5.57;2.42;;;22.00;54.60;;;;;;10418259;28;20095;-58
2022/06/22 14:31:32;;;;;;;5.47;2.08;;;22.00;54.30;;;;;;10408268;28;20184;-59
2022/06/22 14:36:39;;;;;;;3.40;2.00;;;21.90;54.30;;;;;;10416499;28;20037;-58
2022/06/22 14:42:17;;;;;;;3.35;2.00;;;21.90;54.30;;;;;;10404774;28;20026;-58
2022/06/22 14:48:04;;;;;;;2.60;1.73;;;21.90;54.20;;;;;;10416078;28;20075;-58
2022/06/22 14:53:40;;;;;;;3.28;1.90;;;21.90;54.30;;;;;;10370050;28;20076;-58
2022/06/22 14:59:13;;;;;;;4.00;1.73;;;21.90;54.50;;;;;;10405485;28;20056;-59
2022/06/22 15:04:44;;;;;;;2.83;2.15;;;21.90;54.70;;;;;;10416798;28;20041;-58
2022/06/22 15:10:14;;;;;;;14.70;3.15;;;21.90;54.80;;;;;;10401413;28;20029;-59
2022/06/22 15:15:33;;;;;;;9.18;2.10;;;21.90;56.50;;;;;;10402138;28;20103;-60
2022/06/22 15:20:40;;;;;;;;;;;21.90;57.20;;;;;;10400785;28;20431;-59
2022/06/22 15:26:21;;;;;;;7.95;2.42;;;22.00;56.90;;;;;;10388880;28;19949;-60
2022/06/22 15:31:57;;;;;;;6.13;2.35;;;22.00;57.10;;;;;;10411029;28;20133;-59
2022/06/22 15:37:33;;;;;;;8.95;2.72;;;22.10;56.10;;;;;;10411083;28;20405;-60
2022/06/22 15:43:06;;;;;;;12.63;2.67;;;22.10;55.80;;;;;;10401712;28;20548;-60
2022/06/22 15:48:51;;;;;;;11.70;2.20;;;22.10;55.90;;;;;;10409127;28;20041;-59
2022/06/22 15:54:27;;;;;;;9.43;2.33;;;22.10;55.90;;;;;;10403067;28;20051;-59
2022/06/22 15:59:54;;;;;;;9.45;2.20;;;22.20;55.70;;;;;;10419081;28;20501;-60
2022/06/22 16:05:33;;;;;;;2.75;1.95;;;22.20;55.60;;;;;;10413707;28;20048;-60
2022/06/22 16:13:27;;;;;;;6.15;2.30;;;22.10;53.40;;;;;;10411357;28;20026;-58
2022/06/22 16:16:37;;;;;;;15.73;2.88;;;22.20;55.50;;;;;;10412586;28;20374;-60
2022/06/22 16:21:57;;;;;;;;;;;22.20;55.40;;;;;;10413701;28;20037;-59
2022/06/22 16:27:26;;;;;;;4.40;1.88;;;22.10;54.10;;;;;;10413780;28;19917;-59
2022/06/22 16:32:57;;;;;;;4.80;1.80;;;22.10;50.10;;;;;;10404971;28;20509;-59
2022/06/22 16:38:20;;;;;;;3.50;1.90;;;22.10;53.30;;;;;;10412073;28;20064;-60
2022/06/22 16:43:45;;;;;;;3.10;1.83;;;22.10;49.40;;;;;;10412132;28;20025;-60
2022/06/22 16:49:10;;;;;;;2.88;1.73;;;22.10;50.10;;;;;;10419207;28;20375;-59
2022/06/22 16:54:31;;;;;;;3.78;2.25;;;22.20;49.00;;;;;;10411743;28;20041;-60
2022/06/22 17:00:00;;;;;;;2.97;2.05;;;22.20;48.70;;;;;;10410634;28;20033;-60
2022/06/22 17:05:37;;;;;;;5.07;2.40;;;22.30;49.40;;;;;;10400389;28;20033;-59
2022/06/22 17:10:53;;;;;;;3.42;1.60;;;22.30;49.30;;;;;;10411690;28;20486;-58
2022/06/22 17:16:23;;;;;;;2.78;2.13;;;22.30;48.60;;;;;;10413498;28;20036;-59
2022/06/22 17:21:38;;;;;;;;;;;22.30;49.80;;;;;;10421154;28;20446;-60
2022/06/22 17:27:17;;;;;;;4.93;2.10;;;22.40;49.60;;;;;;10434717;28;20031;-60
2022/06/22 17:32:37;;;;;;;4.10;2.17;;;22.30;49.30;;;;;;10416716;28;20042;-60
2022/06/22 17:38:19;;;;;;;4.03;2.03;;;22.30;48.30;;;;;;10418756;28;20056;-60
2022/06/22 17:43:41;;;;;;;5.03;2.08;;;22.40;48.00;;;;;;10418790;28;20547;-61
2022/06/22 17:49:06;;;;;;;2.65;2.00;;;22.40;47.90;;;;;;10418594;28;20033;-61
2022/06/22 17:54:13;;;;;;;4.97;2.22;;;22.40;48.30;;;;;;10418645;28;20034;-61
2022/06/22 17:59:42;;;;;;;4.47;2.30;;;22.50;48.40;;;;;;10417751;28;20041;-60
2022/06/22 18:05:11;;;;;;;3.78;2.10;;;22.40;48.60;;;;;;10412991;28;20033;-60
2022/06/22 18:10:16;;;;;;;5.33;2.57;;;22.50;47.80;;;;;;10418814;28;20816;-61
2022/06/22 18:15:34;;;;;;;4.88;3.15;;;22.50;47.80;;;;;;10417077;28;20033;-59
2022/06/22 18:20:38;;;;;;;5.75;2.03;;;22.50;48.30;;;;;;10415366;28;20108;-59
2022/06/22 18:25:54;;;;;;;5.07;1.92;;;22.80;47.50;;;;;;10416593;28;20041;-59
2022/06/22 18:31:38;;;;;;;4.30;1.75;;;22.70;48.20;;;;;;10389789;28;20041;-58
2022/06/22 18:37:08;;;;;;;3.67;1.65;;;22.70;48.20;;;;;;10416719;28;20041;-59
2022/06/22 18:42:17;;;;;;;3.85;1.50;;;22.60;49.00;;;;;;10415836;28;20389;-60
2022/06/22 18:47:40;;;;;;;2.78;1.55;;;22.60;48.70;;;;;;10415768;28;20030;-59
2022/06/22 18:53:18;;;;;;;4.35;2.35;;;22.50;46.70;;;;;;10422038;28;20030;-59
2022/06/22 18:58:35;;;;;;;7.35;2.60;;;22.50;45.90;;;;;;10415390;28;20449;-59
2022/06/22 19:04:15;;;;;;;5.57;2.75;;;22.50;45.80;;;;;;10403794;28;20099;-58
2022/06/22 19:09:52;;;;;;;3.10;1.77;;;22.50;46.30;;;;;;10412234;28;20033;-59
2022/06/22 19:15:01;;;;;;;3.20;1.42;;;22.40;44.90;;;;;;10414852;28;20144;-58
2022/06/22 19:20:38;;;;;;;5.57;1.90;;;22.40;45.90;;;;;;10412468;28;20038;-58
2022/06/22 19:25:45;;;;;;;9.10;1.77;;;22.40;47.60;;;;;;10407674;28;20057;-59
2022/06/22 19:30:58;;;;;;;2.60;1.52;;;22.40;48.00;;;;;;10408358;28;20032;-59
2022/06/22 19:36:15;;;;;;;3.25;1.35;;;22.40;48.20;;;;;;10397454;28;20521;-60
2022/06/22 19:41:33;;;;;;;3.58;1.50;;;22.40;49.00;;;;;;10398667;28;20549;-59
2022/06/22 19:47:09;;;;;;;3.70;1.40;;;22.40;49.30;;;;;;10413270;28;20527;-59
2022/06/22 19:52:32;;;;;;;3.95;1.38;;;22.40;49.50;;;;;;10420056;28;20033;-59
2022/06/22 19:57:32;;;;;;;6.03;1.27;;;22.40;49.60;;;;;;10409496;28;20035;-60
2022/06/22 20:02:47;;;;;;;3.53;1.65;;;22.40;49.50;;;;;;10411497;28;20026;-60
2022/06/22 20:08:05;;;;;;;2.35;1.27;;;22.30;49.20;;;;;;10412047;28;20033;-59
2022/06/22 20:13:36;;;;;;;1.73;1.20;;;22.30;49.50;;;;;;10412812;28;20032;-60
2022/06/22 20:18:37;;;;;;;3.08;1.40;;;22.30;49.60;;;;;;10413690;28;20030;-59
2022/06/22 20:24:12;;;;;;;1.75;1.23;;;22.30;49.80;;;;;;10412613;28;20402;-59
2022/06/22 20:30:12;;;;;;;2.33;1.20;;;22.30;49.90;;;;;;10412715;28;20041;-59
2022/06/22 20:36:07;;;;;;;2.03;1.33;;;22.40;50.20;;;;;;10403692;28;20056;-59
2022/06/22 20:47:07;;;;;;;2.95;1.30;;;22.30;50.60;;;;;;10412784;28;20030;-59
2022/06/22 20:52:16;;;;;;;1.30;0.90;;;22.30;50.70;;;;;;10419709;28;20083;-59
2022/06/22 20:57:28;;;;;;;2.83;0.93;;;22.30;50.80;;;;;;10411836;28;20117;-59
2022/06/22 21:02:49;;;;;;;3.63;0.88;;;22.30;51.00;;;;;;10397528;28;20029;-59
2022/06/22 21:07:49;;;;;;;1.55;1.13;;;22.30;51.10;;;;;;10411436;28;20095;-59
2022/06/22 21:13:22;;;;;;;2.38;1.30;;;22.30;51.20;;;;;;10410861;28;20075;-59
2022/06/22 21:18:30;;;;;;;2.88;1.20;;;22.40;51.40;;;;;;10393779;28;20552;-59
2022/06/22 21:23:41;;;;;;;1.77;1.27;;;22.40;51.60;;;;;;10412571;28;20069;-59
2022/06/22 21:34:24;;;;;;;2.47;1.00;;;22.30;51.80;;;;;;10411537;28;20045;-59
2022/06/22 21:39:34;;;;;;;1.63;1.23;;;22.30;51.80;;;;;;10412445;28;20113;-59
2022/06/22 21:45:05;;;;;;;2.53;1.20;;;22.30;51.80;;;;;;10411810;28;20477;-59
2022/06/22 21:50:24;;;;;;;1.70;1.02;;;22.30;51.90;;;;;;10419284;28;20378;-59
2022/06/22 21:55:46;;;;;;;2.13;1.25;;;22.30;52.00;;;;;;10412136;28;20395;-59
2022/06/22 22:01:15;;;;;;;1.42;1.13;;;22.30;52.10;;;;;;10411124;28;20080;-59
2022/06/22 22:06:26;;;;;;;1.27;1.07;;;22.30;52.20;;;;;;10404692;28;20038;-59
2022/06/22 22:11:45;;;;;;;1.45;1.10;;;22.30;52.20;;;;;;10417617;28;20099;-59
2022/06/22 22:17:07;;;;;;;2.85;1.38;;;22.30;52.30;;;;;;10418745;28;20504;-59
2022/06/22 22:22:18;;;;;;;2.10;1.25;;;22.30;52.40;;;;;;10417487;28;20033;-59
2022/06/22 22:27:33;;;;;;;2.72;1.40;;;22.30;52.50;;;;;;10415082;28;20477;-59
2022/06/22 22:32:35;;;;;;;2.33;1.10;;;22.30;52.60;;;;;;10416777;28;20038;-59
2022/06/22 22:37:38;;;;;;;1.50;1.00;;;22.30;52.70;;;;;;10404632;28;20120;-59
2022/06/22 22:42:42;;;;;;;2.15;1.42;;;22.30;52.80;;;;;;10416418;28;20057;-59
2022/06/22 22:47:43;;;;;;;2.10;1.52;;;22.30;52.90;;;;;;10416261;28;20079;-59
2022/06/22 22:52:54;;;;;;;1.92;1.38;;;22.30;53.00;;;;;;10418832;28;20030;-59
2022/06/22 22:58:00;;;;;;;2.05;1.42;;;22.30;53.20;;;;;;10415822;28;20038;-59
2022/06/22 23:03:30;;;;;;;2.05;1.40;;;22.30;53.20;;;;;;10415797;28;20187;-59
2022/06/22 23:08:33;;;;;;;2.95;1.05;;;22.30;53.30;;;;;;10416490;28;20040;-59
2022/06/22 23:13:47;;;;;;;1.42;1.17;;;22.30;53.40;;;;;;10416317;28;20029;-59
2022/06/22 23:18:53;;;;;;;1.77;1.05;;;22.30;53.50;;;;;;10416231;28;20033;-59
2022/06/22 23:23:54;;;;;;;2.25;1.65;;;22.30;53.60;;;;;;10415157;28;20044;-59
2022/06/22 23:28:56;;;;;;;3.28;2.33;;;22.30;53.70;;;;;;10414524;28;20085;-59
2022/06/22 23:34:01;;;;;;;3.20;1.40;;;22.30;53.90;;;;;;10415207;28;20037;-60
2022/06/22 23:39:14;;;;;;;2.38;1.33;;;22.30;54.00;;;;;;10414150;28;20041;-60
2022/06/22 23:44:19;;;;;;;2.05;1.60;;;22.20;54.00;;;;;;10414192;28;20029;-59
2022/06/22 23:49:20;;;;;;;2.45;1.55;;;22.30;54.20;;;;;;10422047;28;20036;-59
2022/06/22 23:54:22;;;;;;;1.95;1.50;;;22.30;54.30;;;;;;10413827;28;20049;-59
2022/06/22 23:59:30;;;;;;;2.67;1.55;;;22.30;54.40;;;;;;10413336;28;20029;-59
